createdAt,value
2023-01-15T00:00:52.347Z,62.43
2023-01-15T00:03:19.516Z,62.35
2023-01-15T00:05:46.953Z,62.60
2023-01-15T00:08:14.030Z,62.60
2023-01-15T00:10:41.256Z,62.37
2023-01-15T00:13:08.310Z,62.56
2023-01-15T00:15:36.388Z,62.79
2023-01-15T00:18:03.823Z,62.87
2023-01-15T00:20:30.879Z,62.77
2023-01-15T00:22:58.088Z,62.82
2023-01-15T00:25:44.673Z,63.43
2023-01-15T00:28:13.767Z,63.38
2023-01-15T00:30:43.933Z,63.67
2023-01-15T00:33:11.371Z,63.50
2023-01-15T00:35:38.427Z,63.27
2023-01-15T00:38:05.508Z,63.05
2023-01-15T00:40:32.708Z,63.23
2023-01-15T00:42:59.795Z,63.47
2023-01-15T00:45:26.855Z,63.68
2023-01-15T00:47:54.251Z,63.58
2023-01-15T00:50:21.302Z,63.26
2023-01-15T00:52:48.468Z,63.53
2023-01-15T00:55:16.117Z,64.12
2023-01-15T00:57:43.215Z,63.71
2023-01-15T01:00:12.458Z,63.39
2023-01-15T01:02:40.545Z,63.90
2023-01-15T01:05:08.268Z,63.94
2023-01-15T01:07:36.455Z,64.09
2023-01-15T01:10:03.664Z,63.92
2023-01-15T01:12:30.798Z,63.82
2023-01-15T01:14:57.835Z,64.31
2023-01-15T01:17:25.394Z,64.31
2023-01-15T01:19:52.538Z,64.21
2023-01-15T01:22:19.583Z,64.33
2023-01-15T01:24:46.746Z,63.96
2023-01-15T01:27:13.696Z,63.92
2023-01-15T01:29:40.884Z,63.79
2023-01-15T01:32:08.291Z,63.83
2023-01-15T01:34:35.387Z,64.04
2023-01-15T01:37:02.453Z,63.96
2023-01-15T01:39:29.523Z,63.69
2023-01-15T01:41:56.692Z,63.65
2023-01-15T01:44:33.837Z,63.77
2023-01-15T01:47:01.597Z,63.80
2023-01-15T01:49:28.914Z,63.77
2023-01-15T01:52:03.033Z,63.62
2023-01-15T01:54:30.520Z,63.39
2023-01-15T01:56:57.700Z,63.38
2023-01-15T01:59:24.796Z,63.69
2023-01-15T02:01:53.374Z,64.46
2023-01-15T02:04:20.988Z,64.01
2023-01-15T02:06:48.123Z,63.74
2023-01-15T02:09:15.962Z,63.63
2023-01-15T02:11:43.060Z,63.33
2023-01-15T02:14:39.962Z,63.44
2023-01-15T02:17:07.090Z,63.91
2023-01-15T02:19:53.086Z,63.83
2023-01-15T02:22:29.908Z,64.68
2023-01-15T02:24:57.119Z,64.70
2023-01-15T02:27:24.912Z,64.27
2023-01-15T02:29:54.665Z,63.93
2023-01-15T02:32:42.219Z,63.70
2023-01-15T02:35:16.824Z,63.55
2023-01-15T02:37:48.013Z,63.84
2023-01-15T02:40:15.263Z,64.31
2023-01-15T02:42:42.806Z,63.98
2023-01-15T02:45:09.991Z,63.85
2023-01-15T02:47:37.929Z,63.69
2023-01-15T02:50:06.461Z,63.86
2023-01-15T02:52:39.896Z,64.20
2023-01-15T02:55:17.066Z,64.05
2023-01-15T02:57:45.502Z,64.09
2023-01-15T03:00:14.740Z,64.12
2023-01-15T03:03:02.150Z,63.78
2023-01-15T03:05:31.536Z,63.70
2023-01-15T03:08:01.637Z,63.53
2023-01-15T03:10:43.734Z,63.53
2023-01-15T03:13:11.816Z,63.34
2023-01-15T03:16:12.292Z,63.41
2023-01-15T03:18:47.074Z,64.13
2023-01-15T03:21:15.889Z,63.98
2023-01-15T03:23:43.554Z,64.14
2023-01-15T03:26:10.807Z,64.66
2023-01-15T03:28:39.510Z,64.60
2023-01-15T03:31:06.746Z,64.43
2023-01-15T03:33:34.518Z,64.51
2023-01-15T03:36:02.100Z,64.69
2023-01-15T03:38:51.134Z,64.64
2023-01-15T03:41:47.596Z,64.08
2023-01-15T03:44:18.575Z,63.63
2023-01-15T03:46:46.047Z,63.77
2023-01-15T03:49:16.625Z,63.78
2023-01-15T03:51:44.717Z,63.60
2023-01-15T03:54:15.212Z,63.50
2023-01-15T03:56:43.777Z,63.71
2023-01-15T03:59:12.613Z,63.67
2023-01-15T04:01:55.646Z,63.59
2023-01-15T04:04:24.090Z,63.74
2023-01-15T04:06:51.679Z,64.35
2023-01-15T04:09:19.395Z,64.12
2023-01-15T04:11:47.441Z,63.97
2023-01-15T04:14:14.879Z,64.16
2023-01-15T04:16:44.635Z,64.10
2023-01-15T04:19:13.006Z,64.35
2023-01-15T04:21:48.487Z,64.62
2023-01-15T04:24:15.434Z,64.47
2023-01-15T04:26:42.526Z,64.70
2023-01-15T04:29:09.656Z,65.03
2023-01-15T04:31:38.135Z,64.87
2023-01-15T04:34:05.267Z,64.98
2023-01-15T04:36:35.721Z,64.89
2023-01-15T04:39:03.367Z,64.76
2023-01-15T04:41:49.329Z,64.23
2023-01-15T04:44:17.056Z,64.28
2023-01-15T04:46:44.732Z,64.05
2023-01-15T04:49:15.896Z,64.47
2023-01-15T04:51:43.327Z,64.82
2023-01-15T04:54:10.994Z,64.49
2023-01-15T04:56:39.418Z,64.84
2023-01-15T04:59:06.655Z,64.83
2023-01-15T05:01:33.917Z,65.35
2023-01-15T05:04:01.246Z,64.93
2023-01-15T05:06:28.692Z,64.47
2023-01-15T05:08:57.505Z,64.41
2023-01-15T05:11:24.642Z,64.49
2023-01-15T05:13:52.219Z,64.69
2023-01-15T05:16:20.396Z,65.33
2023-01-15T05:18:47.631Z,65.16
2023-01-15T05:21:18.763Z,64.60
2023-01-15T05:23:45.896Z,64.40
2023-01-15T05:26:13.064Z,64.97
2023-01-15T05:28:40.238Z,64.88
2023-01-15T05:31:08.594Z,64.74
2023-01-15T05:33:36.526Z,64.56
2023-01-15T05:36:05.265Z,64.35
2023-01-15T05:38:32.417Z,64.15
2023-01-15T05:40:59.570Z,63.83
2023-01-15T05:43:26.718Z,63.78
2023-01-15T05:45:53.912Z,63.76
2023-01-15T05:48:21.071Z,63.67
2023-01-15T05:50:48.175Z,63.78
2023-01-15T05:53:15.274Z,64.06
2023-01-15T05:55:42.424Z,64.13
2023-01-15T05:58:09.579Z,64.03
2023-01-15T06:00:37.098Z,64.08
2023-01-15T06:03:04.339Z,64.17
2023-01-15T06:05:31.438Z,64.13
2023-01-15T06:08:01.101Z,64.24
2023-01-15T06:10:28.663Z,64.68
2023-01-15T06:12:55.806Z,64.64
2023-01-15T06:15:22.890Z,65.28
2023-01-15T06:17:50.510Z,65.42
2023-01-15T06:20:17.760Z,65.07
2023-01-15T06:22:44.956Z,64.70
2023-01-15T06:25:12.064Z,64.44
2023-01-15T06:27:39.312Z,64.59
2023-01-15T06:30:06.767Z,64.71
2023-01-15T06:32:33.911Z,64.64
2023-01-15T06:35:01.321Z,64.32
2023-01-15T06:37:28.388Z,64.28
2023-01-15T06:39:55.493Z,64.40
2023-01-15T06:42:41.445Z,64.49
2023-01-15T06:45:29.240Z,64.73
2023-01-15T06:47:56.667Z,64.80
2023-01-15T06:50:24.131Z,64.81
2023-01-15T06:52:51.257Z,64.75
2023-01-15T06:55:19.355Z,64.50
2023-01-15T06:57:46.440Z,64.32
2023-01-15T07:00:13.939Z,65.22
2023-01-15T07:02:44.026Z,66.26
2023-01-15T07:05:11.107Z,65.74
2023-01-15T07:07:38.503Z,65.58
2023-01-15T07:10:05.951Z,65.26
2023-01-15T07:12:34.993Z,65.13
2023-01-15T07:15:02.084Z,65.18
2023-01-15T07:17:29.567Z,64.78
2023-01-15T07:19:57.071Z,64.71
2023-01-15T07:22:24.136Z,64.55
2023-01-15T07:24:51.284Z,63.94
2023-01-15T07:27:18.377Z,63.66
2023-01-15T07:29:45.451Z,63.79
2023-01-15T07:32:13.763Z,64.05
2023-01-15T07:34:40.869Z,64.17
2023-01-15T07:37:08.018Z,63.60
2023-01-15T07:39:35.128Z,63.42
2023-01-15T07:42:21.086Z,63.41
2023-01-15T07:45:07.255Z,63.26
2023-01-15T07:47:53.100Z,62.97
2023-01-15T07:50:21.409Z,62.99
2023-01-15T07:52:48.560Z,63.15
2023-01-15T07:55:15.942Z,63.08
2023-01-15T07:57:43.161Z,63.30
2023-01-15T08:00:14.631Z,63.63
2023-01-15T08:02:41.757Z,63.68
2023-01-15T08:05:11.716Z,63.56
2023-01-15T08:07:39.709Z,63.58
2023-01-15T08:10:07.385Z,64.17
2023-01-15T08:12:54.252Z,64.65
2023-01-15T08:15:22.356Z,64.74
2023-01-15T08:17:50.262Z,65.13
2023-01-15T08:20:21.444Z,65.46
2023-01-15T08:22:48.567Z,65.32
2023-01-15T08:25:16.657Z,64.99
2023-01-15T08:27:43.976Z,64.78
2023-01-15T08:30:12.251Z,64.69
2023-01-15T08:32:39.306Z,65.11
2023-01-15T08:35:06.893Z,64.60
2023-01-15T08:37:34.123Z,64.67
2023-01-15T08:40:01.184Z,64.77
2023-01-15T08:42:28.733Z,64.98
2023-01-15T08:44:55.803Z,65.82
2023-01-15T08:47:22.931Z,66.02
2023-01-15T08:49:49.979Z,65.71
2023-01-15T08:52:17.130Z,65.62
2023-01-15T08:54:44.390Z,65.63
2023-01-15T08:57:12.790Z,65.64
2023-01-15T08:59:40.052Z,65.68
2023-01-15T09:02:07.533Z,65.61
2023-01-15T09:04:34.799Z,65.71
2023-01-15T09:07:02.111Z,65.47
2023-01-15T09:09:29.238Z,65.51
2023-01-15T09:11:56.296Z,65.59
2023-01-15T09:14:59.774Z,65.66
2023-01-15T09:17:11.094Z,65.43
2023-01-15T09:19:38.215Z,65.86
2023-01-15T09:22:05.226Z,65.83
2023-01-15T09:24:32.309Z,65.56
2023-01-15T09:26:59.439Z,65.01
2023-01-15T09:29:26.685Z,64.59
2023-01-15T09:31:53.915Z,64.47
2023-01-15T09:34:21.041Z,64.48
2023-01-15T09:36:48.139Z,64.69
2023-01-15T09:39:15.265Z,64.44
2023-01-15T09:42:10.606Z,64.91
2023-01-15T09:44:37.694Z,64.94
2023-01-15T09:47:23.860Z,65.07
2023-01-15T09:49:51.157Z,64.96
2023-01-15T09:52:21.576Z,64.51
2023-01-15T09:54:58.105Z,64.16
2023-01-15T09:57:25.466Z,63.78
2023-01-15T09:59:52.846Z,63.86
2023-01-15T10:02:24.852Z,64.56
2023-01-15T13:33:26.310Z,75.69
2023-01-15T13:36:07.513Z,71.63
2023-01-15T13:38:41.320Z,69.90
2023-01-15T13:41:08.761Z,69.05
2023-01-15T13:43:42.153Z,68.65
2023-01-15T13:46:13.818Z,67.98
2023-01-15T13:48:45.786Z,67.43
2023-01-15T13:51:43.383Z,67.08
2023-01-15T13:54:14.444Z,66.60
2023-01-15T13:56:41.705Z,66.51
2023-01-15T13:59:35.027Z,66.19
2023-01-15T14:02:02.337Z,65.89
2023-01-15T14:04:36.490Z,65.92
2023-01-15T14:07:04.406Z,65.77
2023-01-15T14:09:34.594Z,65.57
2023-01-15T14:12:11.601Z,65.24
2023-01-15T14:14:50.978Z,65.22
2023-01-15T14:17:59.692Z,65.18
2023-01-15T14:20:26.749Z,65.10
2023-01-15T14:23:15.862Z,64.93
2023-01-15T14:25:58.901Z,64.62
2023-01-15T14:28:41.567Z,64.55
2023-01-15T14:31:23.075Z,64.62
2023-01-15T14:34:19.520Z,64.55
2023-01-15T14:36:53.984Z,64.51
2023-01-15T14:39:50.266Z,64.28
2023-01-15T14:42:44.419Z,64.38
2023-01-15T14:45:11.587Z,64.54
2023-01-15T14:47:59.108Z,64.43
2023-01-15T14:50:33.579Z,64.27
2023-01-15T14:53:29.387Z,64.42
2023-01-15T14:56:02.749Z,64.45
2023-01-15T14:58:40.351Z,64.57
2023-01-15T15:01:36.085Z,64.45
2023-01-15T15:04:33.163Z,64.26
2023-01-15T15:07:17.638Z,64.20
2023-01-15T15:09:55.788Z,64.41
2023-01-15T15:12:49.543Z,64.45
2023-01-15T15:15:20.657Z,64.51
2023-01-15T15:17:57.171Z,64.47
2023-01-15T15:20:25.147Z,64.54
2023-01-15T15:22:56.299Z,64.38
2023-01-15T15:25:25.524Z,64.42
2023-01-15T15:28:20.336Z,64.07
2023-01-15T15:30:47.769Z,64.02
2023-01-15T15:33:20.370Z,64.06
2023-01-15T15:36:06.127Z,63.93
2023-01-15T15:38:34.063Z,63.97
2023-01-15T15:41:04.699Z,63.97
2023-01-15T15:43:55.315Z,64.06
2023-01-15T15:46:51.310Z,64.09
2023-01-15T15:49:20.338Z,64.23
2023-01-15T15:51:51.543Z,64.16
2023-01-15T15:54:29.857Z,64.07
2023-01-15T15:56:59.944Z,64.01
2023-01-15T15:59:27.098Z,64.16
2023-01-15T16:01:55.553Z,64.37
2023-01-15T16:04:23.123Z,64.33
2023-01-15T16:06:50.563Z,64.33
2023-01-15T16:09:24.269Z,64.21
2023-01-15T16:11:52.172Z,64.13
2023-01-15T16:14:19.865Z,63.80
2023-01-15T16:16:48.304Z,63.70
2023-01-15T16:19:21.823Z,63.54
2023-01-15T16:21:49.280Z,63.74
2023-01-15T16:24:24.295Z,63.81
2023-01-15T16:27:01.186Z,63.54
2023-01-15T16:29:29.896Z,63.54
2023-01-15T16:32:00.450Z,63.42
2023-01-15T16:34:32.148Z,63.28
2023-01-15T16:37:00.016Z,63.39
2023-01-15T16:39:30.780Z,63.30
2023-01-15T16:41:58.363Z,63.45
2023-01-15T16:44:43.017Z,63.51
2023-01-15T16:47:28.870Z,63.35
2023-01-15T16:50:22.702Z,63.59
2023-01-15T16:53:01.961Z,63.45
2023-01-15T16:55:35.534Z,63.64
2023-01-15T16:58:16.029Z,63.69
2023-01-15T17:00:53.675Z,63.58
2023-01-15T17:03:26.064Z,63.81
2023-01-15T17:06:00.304Z,63.78
2023-01-15T17:08:27.668Z,63.65
2023-01-15T17:10:57.185Z,63.58
2023-01-15T17:13:39.631Z,63.14
2023-01-15T17:16:27.234Z,63.07
2023-01-15T17:18:54.470Z,62.95
2023-01-15T17:21:32.583Z,62.81
2023-01-15T17:24:04.335Z,62.75
2023-01-15T17:26:31.732Z,62.46
2023-01-15T17:28:58.944Z,62.41
2023-01-15T17:31:33.568Z,62.68
2023-01-15T17:34:01.978Z,63.44
2023-01-15T17:36:29.684Z,63.55
2023-01-15T17:38:57.243Z,63.50
2023-01-15T17:41:24.653Z,63.79
2023-01-15T17:43:52.168Z,63.93
2023-01-15T17:46:19.579Z,63.98
2023-01-15T17:48:46.863Z,63.94
2023-01-15T17:51:14.945Z,64.06
2023-01-15T17:53:42.552Z,63.99
2023-01-15T17:56:28.625Z,63.81
2023-01-15T17:59:34.191Z,64.00
2023-01-15T18:02:20.119Z,64.12
2023-01-15T18:05:10.972Z,63.91
2023-01-15T18:07:41.131Z,63.92
2023-01-15T18:10:09.799Z,63.86
2023-01-15T18:12:36.927Z,63.89
2023-01-15T18:15:04.427Z,64.03
2023-01-15T18:17:32.133Z,64.19
2023-01-15T18:19:59.278Z,64.21
2023-01-15T18:22:26.550Z,64.24
2023-01-15T18:24:54.065Z,64.14
2023-01-15T18:27:21.387Z,64.15
2023-01-15T18:29:48.750Z,64.43
2023-01-15T18:32:16.003Z,64.21
2023-01-15T18:34:43.183Z,64.11
2023-01-15T18:37:10.310Z,64.17
2023-01-15T18:39:37.602Z,64.01
2023-01-15T18:42:05.174Z,64.18
2023-01-15T18:44:51.157Z,63.99
2023-01-15T18:47:18.278Z,64.38
2023-01-15T18:49:46.176Z,64.49
2023-01-15T18:52:33.638Z,64.40
2023-01-15T18:55:00.854Z,64.58
2023-01-15T18:57:28.303Z,64.52
2023-01-15T18:59:55.854Z,64.34
2023-01-15T19:02:23.163Z,64.44
2023-01-15T19:04:50.404Z,64.71
2023-01-15T19:07:17.785Z,64.54
2023-01-15T19:09:45.002Z,64.91
2023-01-15T19:12:13.985Z,65.11
2023-01-15T19:15:00.126Z,65.04
2023-01-15T19:17:45.951Z,64.78
2023-01-15T19:20:17.781Z,65.20
2023-01-15T19:23:00.571Z,65.12
2023-01-15T19:25:32.509Z,65.08
2023-01-15T19:27:59.805Z,65.38
2023-01-15T19:30:27.136Z,65.56
2023-01-15T19:32:55.449Z,65.66
2023-01-15T19:35:22.655Z,65.56
2023-01-15T19:37:49.960Z,65.40
2023-01-15T19:40:23.728Z,64.98
2023-01-15T19:43:09.676Z,64.87
2023-01-15T19:45:57.704Z,64.65
2023-01-15T19:48:43.627Z,64.87
2023-01-15T19:51:10.817Z,64.50
2023-01-15T19:53:40.386Z,64.80
2023-01-15T19:56:08.119Z,64.55
2023-01-15T19:58:35.543Z,64.40
2023-01-15T20:01:02.968Z,64.42
2023-01-15T20:03:30.489Z,64.12
2023-01-15T20:05:58.413Z,63.84
2023-01-15T20:08:26.332Z,63.80
2023-01-15T20:10:53.631Z,63.67
2023-01-15T20:13:41.631Z,63.76
2023-01-15T20:16:13.678Z,63.85
2023-01-15T20:18:41.121Z,63.97
2023-01-15T20:21:08.507Z,63.62
2023-01-15T20:23:36.960Z,63.89
2023-01-15T20:26:05.362Z,63.52
2023-01-15T20:28:33.125Z,63.91
2023-01-15T20:31:01.529Z,64.34
2023-01-15T20:33:28.741Z,64.58
2023-01-15T20:35:55.985Z,64.24
2023-01-15T20:38:24.570Z,63.98
2023-01-15T20:40:52.458Z,63.61
2023-01-15T20:43:52.430Z,63.84
2023-01-15T20:46:19.667Z,63.63
2023-01-15T20:49:10.109Z,63.11
2023-01-15T20:51:37.350Z,63.38
2023-01-15T20:54:04.687Z,63.62
2023-01-15T20:56:31.904Z,63.66
2023-01-15T20:58:59.149Z,64.18
2023-01-15T21:01:27.023Z,64.04
2023-01-15T21:03:54.483Z,63.62
2023-01-15T21:06:22.151Z,62.85
2023-01-15T21:08:49.725Z,63.25
2023-01-15T21:11:17.033Z,63.45
2023-01-15T21:13:46.122Z,63.37
2023-01-15T21:16:14.269Z,62.87
2023-01-15T21:18:45.152Z,62.68
2023-01-15T21:21:13.815Z,62.50
2023-01-15T21:23:41.132Z,62.31
2023-01-15T21:26:08.351Z,61.94
2023-01-15T21:28:35.687Z,61.82
2023-01-15T21:31:06.954Z,61.92
2023-01-15T21:33:34.186Z,61.91
2023-01-15T21:36:08.915Z,62.31
2023-01-15T21:38:36.220Z,62.32
2023-01-15T21:41:10.445Z,62.33
2023-01-15T21:43:56.278Z,62.10
2023-01-15T21:46:27.590Z,61.99
2023-01-15T21:48:58.767Z,62.07
2023-01-15T21:51:26.820Z,61.88
2023-01-15T21:54:00.115Z,61.76
2023-01-15T21:56:27.822Z,61.62
2023-01-15T21:58:55.020Z,61.71
2023-01-15T22:01:22.316Z,61.75
2023-01-15T22:03:49.616Z,61.89
2023-01-15T22:06:16.839Z,61.66
2023-01-15T22:08:43.985Z,61.39
2023-01-15T22:11:11.341Z,61.69
2023-01-15T22:13:39.016Z,62.00
2023-01-15T22:16:07.549Z,61.90
2023-01-15T22:18:34.856Z,61.92
2023-01-15T22:21:03.808Z,61.86
2023-01-15T22:23:31.030Z,61.70
2023-01-15T22:25:58.224Z,61.39
2023-01-15T22:28:25.464Z,61.33
2023-01-15T22:30:52.727Z,61.53
2023-01-15T22:33:19.894Z,61.14
2023-01-15T22:35:56.355Z,60.87
2023-01-15T22:38:23.527Z,60.71
2023-01-15T22:40:50.767Z,61.19
2023-01-15T22:43:18.126Z,61.34
2023-01-15T22:45:45.773Z,61.15
2023-01-15T22:48:13.048Z,61.10
2023-01-15T22:50:40.385Z,61.52
2023-01-15T22:53:08.063Z,62.85
2023-01-15T22:55:36.749Z,63.23
2023-01-15T22:58:03.975Z,63.28
2023-01-15T23:00:31.340Z,63.11
2023-01-15T23:03:05.394Z,62.88
2023-01-15T23:05:37.129Z,62.63
2023-01-15T23:08:04.764Z,62.38
2023-01-15T23:10:31.999Z,62.28
2023-01-15T23:12:59.235Z,62.03
2023-01-15T23:15:26.492Z,61.88
2023-01-15T23:17:53.751Z,62.06
2023-01-15T23:20:21.096Z,61.70
2023-01-15T23:22:48.307Z,61.40
2023-01-15T23:25:15.521Z,61.43
2023-01-15T23:27:42.695Z,61.23
2023-01-15T23:30:10.795Z,61.33
2023-01-15T23:32:39.848Z,60.92
2023-01-15T23:35:08.010Z,61.20
2023-01-15T23:37:35.598Z,61.27
2023-01-15T23:40:02.934Z,61.16
2023-01-15T23:42:48.935Z,60.69
2023-01-15T23:45:34.840Z,60.91
2023-01-15T23:48:02.064Z,61.16
2023-01-15T23:50:29.195Z,61.01
2023-01-15T23:52:56.423Z,61.00
2023-01-15T23:55:23.762Z,60.56
2023-01-15T23:57:50.991Z,60.72
